Flight Track Log - Related Links

Times and Time Zones

All times are in EDT time to prevent confusion due to time zone crossing. See the N882EM flight status page for this flight to view local times or setup timezone preferences in your user account.

Time Position Orientation Groundspeed Altitude Reporting Facility
EDT Latitude Longitude Course Direction KTS MPH feet Rate Location/Type
Sun 03:53:54 PM 33.1222 -102.6617 121° Southeast 176 203 7,900  Level Fort Worth Center
Sun 03:54:54 PM 33.1072 -102.6161 111° Southeast 163 188 8,800 900 Climbing Fort Worth Center
Sun 03:55:54 PM 33.0883 -102.5728 117° Southeast 152 175 9,700 750 Climbing Fort Worth Center
Sun 03:56:54 PM 33.0653 -102.5244 120° Southeast 152 175 10,300 600 Climbing Fort Worth Center
Sun 03:57:54 PM 33.0461 -102.4811 118° Southeast 157 181 10,900 650 Climbing Fort Worth Center
Sun 03:58:54 PM 33.0250 -102.4353 119° Southeast 157 181 11,600 800 Climbing Fort Worth Center
Sun 03:59:00 PM 33.0837 -102.5405 121° Southeast  Level Estimated
Sun 03:59:54 PM 33.0058 -102.3922 118° Southeast 164 189 12,500  Level Fort Worth Center
Sun 04:00:54 PM 32.9806 -102.3414 121° Southeast 165 190 13,000 250 Climbing Fort Worth Center
Sun 04:01:54 PM 32.9614 -102.2981 118° Southeast 171 197 13,000  Level Fort Worth Center
Sun 04:02:54 PM 32.9347 -102.2347 117° Southeast 183 211 13,000  Level Fort Worth Center
Sun 04:03:54 PM 32.9097 -102.1767 117° Southeast 183 211 13,000  Level Fort Worth Center
Sun 04:04:54 PM 32.8847 -102.1233 119° Southeast 189 217 13,000  Level Fort Worth Center
Sun 04:05:54 PM 32.8575 -102.0675 120° Southeast 189 217 13,000  Level Fort Worth Center
Sun 04:06:55 PM 32.8264 -102.0089 122° Southeast 195 224 13,000  Level Fort Worth Center
Sun 04:07:54 PM 32.8031 -101.9583 119° Southeast 189 217 13,000  Level Fort Worth Center
Sun 04:08:54 PM 32.7761 -101.9003 119° Southeast 189 217 13,000  Level Fort Worth Center
Sun 04:09:54 PM 32.7547 -101.8497 117° Southeast 189 217 13,000  Level Fort Worth Center
Sun 04:10:54 PM 32.7297 -101.7942 118° Southeast 189 217 13,000  Level Fort Worth Center
Sun 04:11:54 PM 32.7025 -101.7386 120° Southeast 189 217 13,000  Level Fort Worth Center
Sun 04:12:54 PM 32.6772 -101.6806 117° Southeast 189 217 13,000  Level Fort Worth Center
Sun 04:13:54 PM 32.6519 -101.6250 118° Southeast 189 217 13,000  Level Fort Worth Center
Sun 04:14:54 PM 32.6264 -101.5744 121° Southeast 189 217 13,000  Level Fort Worth Center
Sun 04:15:54 PM 32.6075 -101.5194 112° Southeast 189 217 13,000  Level Fort Worth Center
Sun 04:16:54 PM 32.5800 -101.4664 122° Southeast 189 217 13,000  Level Fort Worth Center
Sun 04:17:54 PM 32.5525 -101.4086 119° Southeast 189 217 13,000  Level Fort Worth Center
Sun 04:18:54 PM 32.5272 -101.3556 119° Southeast 189 217 13,000  Level Fort Worth Center
Sun 04:19:54 PM 32.4997 -101.3003 121° Southeast 189 217 13,000  Level Fort Worth Center
Sun 04:20:54 PM 32.4719 -101.2472 122° Southeast 189 217 13,000  Level Fort Worth Center
Sun 04:21:54 PM 32.4464 -101.1944 120° Southeast 189 217 13,000  Level Fort Worth Center
Sun 04:22:54 PM 32.4231 -101.1394 117° Southeast 189 217 13,000  Level Fort Worth Center
Sun 04:23:55 PM 32.3997 -101.0844 117° Southeast 189 217 13,000  Level Fort Worth Center
Sun 04:24:54 PM 32.3719 -101.0317 122° Southeast 189 217 13,000  Level Fort Worth Center
Sun 04:25:54 PM 32.3444 -100.9764 120° Southeast 189 217 13,000  Level Fort Worth Center
Sun 04:26:54 PM 32.3250 -100.9192 112° Southeast 189 217 13,000 -200 Level Fort Worth Center
Sun 04:27:54 PM 32.3017 -100.8617 116° Southeast 184 212 12,600 -450 Descending Fort Worth Center
Sun 04:28:54 PM 32.2803 -100.7969 111° Southeast 189 217 12,100 -350 Descending Fort Worth Center
Sun 04:29:54 PM 32.2611 -100.7372 111° Southeast 194 223 11,900 -300 Descending Fort Worth Center
Sun 04:30:54 PM 32.2400 -100.6703 110° East 199 229 11,500 -350 Descending Fort Worth Center
Sun 04:31:54 PM 32.2142 -100.6128 118° Southeast 199 229 11,200 -200 Descending Fort Worth Center
Sun 04:32:54 PM 32.1883 -100.5628 121° Southeast 194 223 11,100 -50 Descending Fort Worth Center
Sun 04:33:54 PM 32.1583 -100.5175 128° Southeast 184 212 11,100  Level Fort Worth Center
Sun 04:34:54 PM 32.1300 -100.4750 128° Southeast 172 198 11,100  Level Fort Worth Center
Sun 04:35:54 PM 32.0997 -100.4322 130° Southeast 167 192 11,100  Level Fort Worth Center
Sun 04:36:54 PM 32.0675 -100.3797 126° Southeast 173 199 11,100  Level Fort Worth Center
Sun 04:37:54 PM 32.0394 -100.3347 126° Southeast 173 199 11,100  Level Fort Worth Center
Sun 04:38:54 PM 32.0114 -100.2872 125° Southeast 179 206 11,100  Level Fort Worth Center
Sun 04:39:54 PM 31.9853 -100.2375 122° Southeast 180 207 11,100  Level Fort Worth Center
Sun 04:40:54 PM 31.9614 -100.1900 121° Southeast 171 197 11,100  Level Fort Worth Center
Sun 04:41:54 PM 31.9353 -100.1403 122° Southeast 185 213 11,100  Level Fort Worth Center
Sun 04:42:54 PM 31.9133 -100.0956 120° Southeast 180 207 11,100  Level Fort Worth Center
Sun 04:43:54 PM 31.8872 -100.0436 121° Southeast 180 207 11,100  Level Fort Worth Center
Sun 04:44:54 PM 31.8611 -99.9914 120° Southeast 180 207 11,100  Level Fort Worth Center
Sun 04:45:54 PM 31.8369 -99.9442 121° Southeast 175 201 11,100  Level Fort Worth Center
Sun 04:46:54 PM 31.8089 -99.8947 124° Southeast 175 201 11,100  Level Fort Worth Center
Sun 04:47:54 PM 31.7847 -99.8450 120° Southeast 175 201 11,100  Level Fort Worth Center
Sun 04:48:54 PM 31.7606 -99.7931 119° Southeast 180 207 11,100  Level Fort Worth Center
Sun 04:49:54 PM 31.7344 -99.7436 122° Southeast 180 207 11,100  Level Fort Worth Center
Sun 04:50:54 PM 31.7103 -99.6917 119° Southeast 179 206 11,100  Level Fort Worth Center
Sun 04:51:54 PM 31.6842 -99.6375 120° Southeast 184 212 11,100  Level Fort Worth Center
Sun 04:52:54 PM 31.6578 -99.5881 122° Southeast 184 212 11,100  Level Fort Worth Center
Sun 04:53:54 PM 31.6336 -99.5386 120° Southeast 184 212 11,100  Level Fort Worth Center
Sun 04:54:54 PM 31.6136 -99.4992 121° Southeast 184 212 11,100 -100 Level Fort Worth Center
Sun 04:55:54 PM 31.5853 -99.4422 120° Southeast 184 212 10,900 -250 Descending Fort Worth Center
Sun 04:56:54 PM 31.5608 -99.3906 119° Southeast 184 212 10,600 -350 Descending Fort Worth Center
Sun 04:57:54 PM 31.5347 -99.3364 119° Southeast 189 217 10,200 -434 Descending Fort Worth Center
Sun 04:59:26 PM 31.4944 -99.2511 119° Southeast 190 219 9,500 -351 Descending Houston Center
Sun 05:00:28 PM 31.4681 -99.1969 120° Southeast 189 217 9,300 -194 Descending Houston Center
Sun 05:01:30 PM 31.4408 -99.1458 122° Southeast 184 212 9,100 -97 Descending Houston Center
Sun 05:02:32 PM 31.4150 -99.0961 121° Southeast 180 207 9,100  Level Houston Center
Sun 05:03:34 PM 31.3897 -99.0481 122° Southeast 174 200 9,100  Level Houston Center
Sun 05:04:36 PM 31.3594 -98.9908 122° Southeast 175 201 9,100  Level Houston Center
Sun 05:05:38 PM 31.3339 -98.9411 121° Southeast 176 203 9,100  Level Houston Center
Sun 05:06:40 PM 31.3081 -98.8936 122° Southeast 173 199 9,100  Level Houston Center
Sun 05:07:42 PM 31.2853 -98.8447 119° Southeast 171 197 9,100  Level Houston Center
Sun 05:08:45 PM 31.2606 -98.7967 121° Southeast 170 196 9,100  Level Houston Center
Sun 05:09:47 PM 31.2361 -98.7475 120° Southeast 173 199 9,100  Level Houston Center
Sun 05:10:49 PM 31.2119 -98.6975 119° Southeast 174 200 9,100  Level Houston Center
Sun 05:11:51 PM 31.1814 -98.6397 122° Southeast 176 203 9,100  Level Houston Center
Sun 05:12:36 PM 31.1594 -98.6078 129° Southeast 172 198 9,100  Level Fort Worth Center
Sun 05:13:12 PM 31.1453 -98.5758 117° Southeast 170 196 9,100  Level Fort Worth Center
Sun 05:14:13 PM 31.1206 -98.5319 123° Southeast 173 199 9,100  Level Fort Worth Center
Sun 05:14:57 PM 31.1042 -98.4953 118° Southeast 176 203 9,100  Level Houston Center

Login

Don't have an account? Register now (free) for customized features, flight alerts, and more!